Richland, Mississippi
Current Conditions -  °F | °C
As of 9:54 PM on Sunday 25 Jan 2015 (Local Time) from KJAN Reporting Station
Broken Clouds Broken Clouds  
Wind Chill: 12°   Ceiling: 9000
Heat Index: 12°   Visibility: 10mi
Dew Point:   Wind: 16mph
Humidity: 47%   Direction: 320°NW
Pressure: 29.92"   Gusts: 25mph
Location:  32.2326°N, 90.165°W
Report Text: KJAN 260354Z 32014G22KT 10SM BKN090 12/01 A2992 RMK AO2 SLP130 T01220011
Loading
Personal Weather Stations






























Interactive Weather Map New forecast layout! Learn more

10-Day Weather Forecast

Advertisements
Track Severe Weather on mobile